Tropical Cyclones
[Index]
Main Index Home Page Stock Weather Photos Extreme Storms Discussion Storm News and Storm Chasing Reports Tropical Cyclones / Hurricanes / Typhoons Weather Data and Links Wild Fires / Bushfires Weather Observation Techniques Weather Picture Catalogue Tornado Pictures and Reports Stock Video Footage and DVDs for sale
Season 2004-2005 Tropical Cyclone WILLY Track Map
Season 2004-2005 Summaries (Operational Data): [AU] [SIO] [SPAC] [SH]
<<- Previous TC | 2004-2005 Season | Next TC ->>

click for intensity scale information  Lat/long Grid: Show Hide

 Date Labels: Show Hide

Operational Tropical Cyclone Data : JTWC Advisories

Name: WILLY
Number: 0523

09 Mar 2005 01:00 UTC to 17 Mar 2005 03:00 UTC

    date/time    lat    long     hPa   cat  kts
2005-03-09 01   13.0   119.5    1002         25          
2005-03-09 04   12.6   119.4    1002         25          
2005-03-09 10   13.0   118.7     998         30          
2005-03-09 16   13.1   118.0     995    1    35          
2005-03-09 22   14.0   117.5     990    1    40          
2005-03-10 04   14.3   116.1     988    1    45          
2005-03-10 10   14.8   115.3     980    2    55          
2005-03-10 16   15.4   114.7     975    2    60          
2005-03-10 22   15.9   113.9     970    3    65          
2005-03-11 04   16.4   113.0     960    3    75          
2005-03-11 10   17.2   112.1     960    3    70          
2005-03-11 16   18.1   111.4     960    3    70          
2005-03-11 22   18.3   111.1     960    3    80          
2005-03-12 04   19.1   110.6     960    3    75          
2005-03-12 10   20.2   109.8     960    3    75          
2005-03-12 16   20.9   109.2     960    3    75          
2005-03-12 22   20.9   109.0     960    3    75          
2005-03-13 04   20.9   108.8     965    3    70          
2005-03-13 10   21.2   108.4     975    2    60          
2005-03-13 16   21.1   107.9     980    2    55          
2005-03-13 22   21.3   107.2     990    1    40          
2005-03-14 04   21.2   106.9     992    1    40          
2005-03-14 10   21.2   106.3     997         30          
2005-03-15 02   19.9   104.3                 25          
2005-03-16 03   20.0   102.0                 20          
2005-03-17 03   21.2   101.8                 20          
Winds are 10-min average.

Tropical cyclone tracks developed by Michael Bath using operational warnings and advisories and Google Maps.


[Australian Severe Weather index] [Copyright Notice] [Email Contacts] [Search This Site] [Privacy Policy]
Document: tropical_cyclone_willy.htm Updated: 28 May 2013